^^
Meteo Knjazevac Station Historical Data
Daily Summary for August 27, 2021 Units:  Metric    English   Both
Daily Weekly Monthly Yearly Custom
  High: Low: Average:
Temperature: 20.4 °C 12.3 °C 14.1 °C
Dew Point: 18.7 °C 11.3 °C 12.9 °C
Humidity: 99% 85% 93%
Wind Speed: 8km/h 0km/h 1.4km/h
Wind Gust: 12.9km/h - -
Wind- - SSW
Pressure: 1019.2 hPa 1017.8 hPa -
Precipitation: 5.08 mm    
Historical Graphs
 
 
Tabular Data for August 27, 2021
Time Temperature Dew Point Pressure Wind Wind Speed Wind Gust Humidity Rainfall Rate (Hourly) solar Conditions
00:00 14.8 °C 12.3 °C 1018.8 hPa Calm   3.2 km/h 85% 0 mm 0 W/m2
00:10 14.8 °C 12.3 °C 1018.8 hPa Calm   3.2 km/h 85% 0 mm 0 W/m2
00:20 14.4 °C 12.1 °C 1018.8 hPa WNW 1.6 km/h 3.2 km/h 86% 0 mm 0 W/m2
00:30 14.3 °C 12 °C 1018.8 hPa WNW 1.6 km/h 4.8 km/h 86% 0 mm 0 W/m2
00:40 14.2 °C 12.2 °C 1018.5 hPa WNW 1.6 km/h 4.8 km/h 88% 0 mm 0 W/m2
00:50 14 °C 12.1 °C 1018.5 hPa SW 1.6 km/h 3.2 km/h 88% 0 mm 0 W/m2
01:00 13.7 °C 11.9 °C 1018.5 hPa West 1.6 km/h 6.4 km/h 89% 0 mm 0 W/m2
01:10 13.7 °C 11.9 °C 1018.5 hPa WNW 3.2 km/h 6.4 km/h 89% 0 mm 0 W/m2
01:20 13.7 °C 12.1 °C 1018.5 hPa WNW 3.2 km/h 6.4 km/h 90% 0 mm 0 W/m2
01:30 13.6 °C 11.9 °C 1018.5 hPa West 1.6 km/h 6.4 km/h 90% 0 mm 0 W/m2
01:40 13.5 °C 11.9 °C 1018.8 hPa WNW 3.2 km/h 4.8 km/h 90% 0 mm 0 W/m2
01:50 13.4 °C 11.8 °C 1018.5 hPa North 1.6 km/h 4.8 km/h 90% 0 mm 0 W/m2
02:00 13.3 °C 11.7 °C 1018.5 hPa West 1.6 km/h 4.8 km/h 90% 0 mm 0 W/m2
02:10 13.2 °C 11.6 °C 1018.5 hPa NW 1.6 km/h 4.8 km/h 90% 0 mm 0 W/m2
02:20 13 °C 11.4 °C 1018.5 hPa West 1.6 km/h 3.2 km/h 90% 0 mm 0 W/m2
02:30 12.9 °C 11.4 °C 1018.5 hPa WNW 1.6 km/h 3.2 km/h 91% 0 mm 0 W/m2
02:40 12.9 °C 11.4 °C 1018.5 hPa WNW 3.2 km/h 6.4 km/h 91% 0 mm 0 W/m2
02:50 12.9 °C 11.4 °C 1018.2 hPa Calm   6.4 km/h 91% 0 mm 0 W/m2
03:00 12.8 °C 11.4 °C 1018.5 hPa Calm   3.2 km/h 91% 0 mm 0 W/m2
03:10 12.7 °C 11.3 °C 1018.2 hPa Calm   3.2 km/h 91% 0 mm 0 W/m2
03:20 12.5 °C 11.4 °C 1018.5 hPa SW 1.6 km/h 4.8 km/h 93% 0 mm 0 W/m2
03:30 12.5 °C 11.4 °C 1018.5 hPa West 1.6 km/h 3.2 km/h 93% 0 mm 0 W/m2
03:40 12.6 °C 11.5 °C 1018.2 hPa Calm   3.2 km/h 93% 0 mm 0 W/m2
03:50 12.6 °C 11.7 °C 1018.2 hPa SSW 1.6 km/h 3.2 km/h 94% 0 mm 0 W/m2
04:00 12.7 °C 11.8 °C 1018.2 hPa Calm   3.2 km/h 94% 0 mm 0 W/m2
04:10 12.8 °C 11.7 °C 1018.2 hPa Calm     93% 0 mm 0 W/m2
04:20 12.8 °C 11.7 °C 1018.2 hPa NW 1.6 km/h 3.2 km/h 93% 0 mm 0 W/m2
04:30 12.7 °C 11.8 °C 1018.2 hPa Calm   3.2 km/h 94% 0 mm 0 W/m2
04:40 12.7 °C 11.8 °C 1018.2 hPa Calm   3.2 km/h 94% 0 mm 0 W/m2
04:50 12.6 °C 11.7 °C 1018.5 hPa Calm   3.2 km/h 94% 0 mm 0 W/m2
05:00 12.5 °C 11.6 °C 1018.5 hPa Calm   1.6 km/h 94% 0 mm 3 W/m2
05:10 12.5 °C 11.6 °C 1018.5 hPa Calm     94% 0 mm 7 W/m2
05:20 12.5 °C 11.6 °C 1018.5 hPa Calm   1.6 km/h 94% 0 mm 14 W/m2
05:30 12.4 °C 11.4 °C 1018.5 hPa Calm   3.2 km/h 94% 0 mm 25 W/m2
05:40 12.4 °C 11.4 °C 1018.5 hPa NW 1.6 km/h 3.2 km/h 94% 0 mm 37 W/m2
05:50 12.3 °C 11.4 °C 1018.2 hPa West 1.6 km/h 3.2 km/h 94% 0 mm 54 W/m2
06:00 12.3 °C 11.5 °C 1018.5 hPa West 3.2 km/h 8 km/h 95% 0 mm 89 W/m2
06:10 12.5 °C 11.7 °C 1018.5 hPa WNW 3.2 km/h 6.4 km/h 95% 0 mm 71 W/m2
06:20 12.7 °C 11.9 °C 1018.5 hPa Calm   3.2 km/h 95% 0 mm 32 W/m2
06:30 12.8 °C 12 °C 1018.8 hPa Calm   3.2 km/h 95% 0 mm 37 W/m2
06:40 12.9 °C 12.1 °C 1018.8 hPa Calm   1.6 km/h 95% 0 mm 41 W/m2
06:50 13.1 °C 12.3 °C 1018.8 hPa South 3.2 km/h 3.2 km/h 95% 0 mm 32 W/m2
07:00 13.1 °C 12.3 °C 1018.8 hPa SE 1.6 km/h 3.2 km/h 95% 0 mm 25 W/m2
07:10 13.2 °C 12.3 °C 1018.8 hPa Calm   3.2 km/h 94% 0 mm 41 W/m2
07:20 13.3 °C 12.3 °C 1018.8 hPa SSE 1.6 km/h 3.2 km/h 94% 0 mm 43 W/m2
07:30 13.3 °C 12.3 °C 1018.8 hPa Calm   3.2 km/h 94% 0 mm 15 W/m2
07:40 13.4 °C 12.7 °C 1018.8 hPa NW 3.2 km/h 4.8 km/h 95% 1.27 mm 13 W/m2
07:50 13.5 °C 12.9 °C 1018.8 hPa NW 1.6 km/h 4.8 km/h 96% 0 mm 12 W/m2
08:00 13.5 °C 12.9 °C 1018.8 hPa Calm   3.2 km/h 96% 0 mm 59 W/m2
08:10 13.6 °C 13 °C 1018.8 hPa Calm   3.2 km/h 96% 0 mm 96 W/m2
08:20 13.7 °C 13.1 °C 1018.8 hPa Calm   3.2 km/h 96% 1.52 mm 75 W/m2
08:30 13.8 °C 13.5 °C 1018.8 hPa NE 4.8 km/h 8 km/h 98% 2.29 mm 75 W/m2
08:40 13.9 °C 13.7 °C 1018.8 hPa Calm   8 km/h 99% 0 mm 170 W/m2
08:50 14.1 °C 14 °C 1019.2 hPa SW 1.6 km/h 4.8 km/h 99% 0 mm 237 W/m2
09:00 14.3 °C 14 °C 1018.8 hPa Calm   4.8 km/h 98% 0 mm 194 W/m2
09:10 14.7 °C 14.6 °C 1018.8 hPa Calm   4.8 km/h 99% 0 mm 272 W/m2
09:20 15 °C 14.4 °C 1018.8 hPa NNE 4.8 km/h 6.4 km/h 96% 0 mm 378 W/m2
09:30 15.4 °C 14.6 °C 1018.8 hPa NNE 1.6 km/h 6.4 km/h 95% 0 mm 311 W/m2
09:40 15.6 °C 14.6 °C 1018.8 hPa SE 1.6 km/h 8 km/h 94% 0 mm 280 W/m2
09:50 15.8 °C 15.1 °C 1018.8 hPa SW 1.6 km/h 4.8 km/h 95% 0 mm 402 W/m2
10:00 16.2 °C 15.2 °C 1018.8 hPa SSW 1.6 km/h 6.4 km/h 94% 0 mm 312 W/m2
10:10 16.5 °C 15.6 °C 1018.5 hPa South 1.6 km/h 4.8 km/h 94% 0 mm 391 W/m2
10:20 17 °C 15.8 °C 1018.5 hPa NNE 1.6 km/h 6.4 km/h 93% 0 mm 670 W/m2
10:30 17.3 °C 15.8 °C 1018.5 hPa NNE 3.2 km/h 8 km/h 91% 0 mm 635 W/m2
10:40 18 °C 16.8 °C 1018.2 hPa North 8 km/h 11.3 km/h 93% 0 mm 568 W/m2
10:50 18.7 °C 17.6 °C 1018.2 hPa North 1.6 km/h 9.7 km/h 93% 0 mm 631 W/m2
11:00 19.1 °C 17.6 °C 1018.2 hPa North 1.6 km/h 8 km/h 91% 0 mm 531 W/m2
11:10 19.6 °C 18.1 °C 1018.2 hPa North 1.6 km/h 8 km/h 91% 0 mm 806 W/m2
11:20 20.2 °C 18.5 °C 1017.8 hPa NNE 3.2 km/h 11.3 km/h 90% 0 mm 599 W/m2
11:30 20.4 °C 18.7 °C 1017.8 hPa NNW 4.8 km/h 12.9 km/h 90% 0 mm 706 W/m2
Knjazevac, Serbia
Compliments of Weather Underground - 2 mb